Roscoe, MT (59071)

5:59 AM MDT on March 25, 2017 (GMT -0600)
Luther East | | Change Station

Elev 5100 ft 45.28 °N, 109.38 °W | Updated 27 seconds ago

Mostly Cloudy
Mostly Cloudy
43.7 °F
Feels Like 40 °F
N
6.3
Wind Variable Wind from SSE

Today
High -- | Low -- °F
--% Chance of Precip.
Yesterday
High -- | Low -- °F
Precip. -- in
Pressure 29.95 in
Visibility 10.0 miles
Clouds Mostly Cloudy 1500 ft
Mostly Cloudy 2300 ft
Overcast 3100 ft
Windchill 40 °F
Dew Point 26 °F
Humidity 50%
Rainfall 0.00 in
Snow Depth Not available.
7:11 AM 7:37 PM
Waning Crescent, 9% visible
METAR KLVM 251153Z AUTO 33007KT 10SM -RA BKN015 BKN023 OVC031 04/02 A2998 RMK AO2 RAB16 SLP142 P0000 60000 T00440017 10106 20044 51029
Pressure 29.95 in
Visibility 10.0 miles
Clouds Mostly Cloudy 1500 ft
Mostly Cloudy 2300 ft
Overcast 3100 ft
Windchill 40 °F
Dew Point 26 °F
Humidity 50%
Rainfall 0.00 in
Snow Depth Not available.
7:11 AM 7:37 PM
Waning Crescent, 9% visible
METAR KLVM 251153Z AUTO 33007KT 10SM -RA BKN015 BKN023 OVC031 04/02 A2998 RMK AO2 RAB16 SLP142 P0000 60000 T00440017 10106 20044 51029

Get Severe Weather Alerts

Thanks for signing up!

Be on the lookout for a verification email in your inbox.

You'll start receiving the daily forecast at 8 AM.

×

10-Day Weather Forecast

Almanac

Astronomy

Mar. 25, 2017 Rise Set
Actual Time
Civil Twilight
Nautical Twilight
Astronomical Twilight
Moon
Length of Visible Light
Length of Day
Tomorrow will be .
, % of the Moon is Illuminated

Today's Extremes

State Highs State Lows

Community

WunderPhotos

Upload Photos

1,962,540 photos uploaded!

WunderBlog® & News

Nearby

Air Quality

  Air Quality AQ Index Pollutant
Not available.

Snow Depth

Station Depth Elevation

Earthquake Activity

City Distance Mag. Time & Date
Minimum magnitude displayed is 2.5.

Earthquake Activity

City Distance Mag. Time & Date
Minimum magnitude displayed is 2.5.

Coastal Water Temperatures

Place Temperature

Stations

Nearby Weather Stations

Station Location Temp. Windchill Dew Point Humidity Wind Precip. Elev Updated Type
                   

Watches & Warnings

There are currently no watches in effect.